Time;durP1;ratioP1;P1;durP2;ratioP2;P2;SDS_P1;SDS_P2;PMS_P1;PMS_P2;Temp;Humidity;BMP_temperature;BMP_pressure;BME280_temperature;BME280_humidity;BME280_pressure;Samples;Min_cycle;Max_cycle;Signal;HPM_P1;HPM_P2
2023/05/09 00:01:47;;;;;;;;;;;;;;;19.27;68.79;101520.56;7397417;19;1876;-48
2023/05/09 00:04:17;;;;;;;;;;;;;;;19.29;68.76;101513.25;7396780;19;1281;-47
2023/05/09 00:06:45;;;;;;;;;;;;;;;19.34;68.39;101526.28;7396369;19;1852;-47
2023/05/09 00:09:14;;;;;;;;;;;;;;;19.23;68.92;101525.28;7394720;19;1154;-47
2023/05/09 00:11:45;;;;;;;;;;;;;;;19.22;69.09;101526.28;7394781;19;1202;-47
2023/05/09 00:14:14;;;;;;;;;;;;;;;19.28;68.59;101520.44;7395841;19;1190;-46
2023/05/09 00:16:43;;;;;;;;;;;;;;;19.29;68.65;101523.97;7395657;19;1431;-47
2023/05/09 00:19:11;;;;;;;;;;;;;;;19.22;68.92;101520.06;7394217;19;1265;-47
2023/05/09 00:21:40;;;;;;;;;;;;;;;19.24;68.89;101518.13;7396219;19;1571;-47
2023/05/09 00:24:08;;;;;;;;;;;;;;;19.30;68.61;101514.97;7396182;19;1373;-47
2023/05/09 00:26:37;;;;;;;;;;;;;;;19.29;68.58;101523.97;7393802;19;1848;-47
2023/05/09 00:29:07;;;;;;;;;;;;;;;19.34;68.39;101513.75;7396412;19;1672;-47
2023/05/09 00:31:36;;;;;;;;;;;;;;;19.36;68.32;101518.97;7396671;19;1704;-47
2023/05/09 00:34:04;;;;;;;;;;;;;;;19.30;68.48;101519.44;7394452;19;1570;-47
2023/05/09 00:36:33;;;;;;;;;;;;;;;19.25;68.79;101517.97;7396600;19;1562;-47
2023/05/09 00:39:01;;;;;;;;;;;;;;;19.33;68.65;101514.72;7395970;19;1070;-47
2023/05/09 00:41:29;;;;;;;;;;;;;;;19.30;68.38;101527.50;7396709;19;1257;-47
2023/05/09 00:43:57;;;;;;;;;;;;;;;19.29;68.56;101529.34;7395382;19;1542;-47
2023/05/09 00:46:29;;;;;;;;;;;;;;;19.36;68.24;101529.69;7395660;19;1858;-47
2023/05/09 00:48:57;;;;;;;;;;;;;;;19.37;68.54;101534.09;7395461;19;1605;-47
2023/05/09 00:51:27;;;;;;;;;;;;;;;19.26;68.63;101525.06;7396302;19;1516;-47
2023/05/09 00:53:55;;;;;;;;;;;;;;;19.24;68.71;101537.75;7396500;19;1499;-47
2023/05/09 00:56:24;;;;;;;;;;;;;;;19.25;68.54;101527.88;7395209;19;1198;-47
2023/05/09 00:58:52;;;;;;;;;;;;;;;19.31;68.46;101543.47;7395081;19;1935;-47
2023/05/09 01:01:21;;;;;;;;;;;;;;;19.34;68.20;101540.56;7396559;19;1130;-47
2023/05/09 01:03:52;;;;;;;;;;;;;;;19.30;68.35;101533.75;7396448;19;1474;-47
2023/05/09 01:06:27;;;;;;;;;;;;;;;19.27;68.47;101550.06;7395289;19;1854;-47
2023/05/09 01:09:00;;;;;;;;;;;;;;;19.23;68.46;101529.81;7394242;19;1553;-46
2023/05/09 01:11:33;;;;;;;;;;;;;;;19.20;68.71;101530.03;7396453;19;1174;-47
2023/05/09 01:14:07;;;;;;;;;;;;;;;19.17;68.81;101535.66;7395642;19;1406;-47
2023/05/09 01:16:40;;;;;;;;;;;;;;;19.08;69.15;101530.03;7395633;19;1491;-47
2023/05/09 01:19:29;;;;;;;;;;;;;;;19.13;69.01;101529.66;7394594;19;1470;-47
2023/05/09 01:21:58;;;;;;;;;;;;;;;19.11;68.86;101534.28;7398887;19;1526;-47
2023/05/09 01:24:41;;;;;;;;;;;;;;;19.10;68.95;101545.13;7402578;19;1549;-47
2023/05/09 01:27:22;;;;;;;;;;;;;;;19.17;68.69;101538.31;7400963;19;1853;-47
2023/05/09 01:29:58;;;;;;;;;;;;;;;19.16;68.67;101533.91;7402996;19;1253;-47
2023/05/09 01:32:27;;;;;;;;;;;;;;;19.24;68.44;101531.53;7402330;19;1135;-47
2023/05/09 01:34:58;;;;;;;;;;;;;;;19.28;68.41;101549.09;7402415;19;1554;-47
2023/05/09 01:37:31;;;;;;;;;;;;;;;19.20;68.27;101535.41;7401928;19;1210;-47
2023/05/09 01:40:01;;;;;;;;;;;;;;;19.18;68.55;101548.06;7401487;19;1182;-47
2023/05/09 01:42:35;;;;;;;;;;;;;;;19.13;68.89;101539.53;7401413;19;1398;-47
2023/05/09 01:45:07;;;;;;;;;;;;;;;19.30;69.02;101541.78;7403112;19;1024;-47
2023/05/09 01:47:35;;;;;;;;;;;;;;;20.29;65.96;101534.00;7401174;19;1854;-47
2023/05/09 01:50:04;;;;;;;;;;;;;;;20.49;65.53;101554.69;7401010;19;1482;-47
2023/05/09 01:52:33;;;;;;;;;;;;;;;20.79;64.65;101553.16;7401591;19;1428;-47
2023/05/09 01:55:02;;;;;;;;;;;;;;;20.69;65.33;101545.06;7401849;19;1550;-47
2023/05/09 01:57:32;;;;;;;;;;;;;;;20.71;65.46;101542.22;7401384;19;1474;-47
2023/05/09 02:00:01;;;;;;;;;;;;;;;20.80;65.09;101538.75;7400285;19;1589;-47
2023/05/09 02:02:32;;;;;;;;;;;;;;;20.88;64.91;101544.34;7401279;19;1509;-47
2023/05/09 02:05:01;;;;;;;;;;;;;;;20.87;64.99;101523.84;7400513;19;1558;-48
2023/05/09 02:07:30;;;;;;;;;;;;;;;20.82;65.12;101531.44;7399404;19;1859;-48
2023/05/09 02:09:59;;;;;;;;;;;;;;;20.82;65.19;101539.50;7398143;19;1206;-47
2023/05/09 02:12:28;;;;;;;;;;;;;;;20.92;64.82;101545.78;7400436;19;1525;-47
2023/05/09 02:14:56;;;;;;;;;;;;;;;20.92;64.96;101543.09;7401825;19;1123;-48
2023/05/09 02:17:25;;;;;;;;;;;;;;;20.85;64.96;101528.50;7400271;19;1822;-47
2023/05/09 02:19:55;;;;;;;;;;;;;;;20.94;65.17;101542.97;7400722;19;1918;-48
2023/05/09 02:22:24;;;;;;;;;;;;;;;21.02;64.63;101538.66;7400091;19;1620;-47
2023/05/09 02:24:52;;;;;;;;;;;;;;;21.12;64.55;101551.31;7398205;19;1597;-47
2023/05/09 02:27:21;;;;;;;;;;;;;;;21.08;64.66;101533.75;7397618;19;1851;-47
2023/05/09 02:29:52;;;;;;;;;;;;;;;21.01;64.80;101538.81;7400087;19;1241;-47
2023/05/09 02:32:22;;;;;;;;;;;;;;;21.01;64.83;101542.34;7400202;19;1265;-47
2023/05/09 02:34:51;;;;;;;;;;;;;;;20.95;65.05;101547.34;7399004;19;1560;-47
2023/05/09 02:37:22;;;;;;;;;;;;;;;20.98;65.06;101529.13;7399853;19;1490;-47
2023/05/09 02:39:51;;;;;;;;;;;;;;;21.00;64.97;101539.78;7399773;19;1167;-49
2023/05/09 02:42:23;;;;;;;;;;;;;;;21.02;65.09;101552.09;7400027;19;1313;-48
2023/05/09 02:44:52;;;;;;;;;;;;;;;21.07;64.73;101546.34;7399872;19;1597;-49
2023/05/09 02:47:20;;;;;;;;;;;;;;;20.80;64.92;101506.50;7398008;19;1853;-48
2023/05/09 02:49:49;;;;;;;;;;;;;;;21.03;65.05;101547.59;7399940;19;1277;-48
2023/05/09 02:52:17;;;;;;;;;;;;;;;21.08;64.94;101547.19;7400274;19;1601;-48
2023/05/09 02:54:48;;;;;;;;;;;;;;;21.03;64.87;101545.75;7398351;19;1589;-48
2023/05/09 02:57:17;;;;;;;;;;;;;;;21.11;64.75;101563.94;7398083;19;1500;-48
2023/05/09 02:59:45;;;;;;;;;;;;;;;21.09;64.80;101554.25;7399631;19;1581;-48
2023/05/09 03:02:13;;;;;;;;;;;;;;;21.09;65.01;101559.63;7399793;19;1121;-48
2023/05/09 03:04:42;;;;;;;;;;;;;;;21.08;65.09;101560.63;7399311;19;1482;-48
2023/05/09 03:07:10;;;;;;;;;;;;;;;21.10;64.96;101559.53;7398918;19;1851;-48
2023/05/09 03:09:38;;;;;;;;;;;;;;;21.08;64.98;101560.63;7396877;19;1349;-48
2023/05/09 03:12:09;;;;;;;;;;;;;;;21.09;65.11;101573.09;7400012;19;1309;-48
2023/05/09 03:14:38;;;;;;;;;;;;;;;21.08;65.02;101564.19;7398116;19;1557;-48
2023/05/09 03:17:06;;;;;;;;;;;;;;;21.10;64.87;101567.59;7398615;19;1289;-48
2023/05/09 03:19:34;;;;;;;;;;;;;;;21.05;65.40;101580.59;7398722;19;1268;-48
2023/05/09 03:22:02;;;;;;;;;;;;;;;20.96;65.63;101568.75;7398031;19;1253;-48
2023/05/09 03:24:31;;;;;;;;;;;;;;;20.96;65.96;101600.16;7398766;19;1582;-48
2023/05/09 03:27:00;;;;;;;;;;;;;;;20.92;65.98;101604.09;7397846;19;1857;-49
2023/05/09 03:29:32;;;;;;;;;;;;;;;20.95;65.81;101601.13;7398198;19;1566;-49
2023/05/09 03:32:00;;;;;;;;;;;;;;;21.15;65.30;101599.47;7398969;19;1246;-48
2023/05/09 03:34:28;;;;;;;;;;;;;;;21.01;65.51;101617.63;7397531;19;1490;-49
2023/05/09 03:36:57;;;;;;;;;;;;;;;20.87;66.08;101604.50;7396156;19;2051;-48
2023/05/09 03:39:25;;;;;;;;;;;;;;;20.99;65.69;101616.91;7398413;19;1560;-49
2023/05/09 03:41:53;;;;;;;;;;;;;;;21.20;65.26;101608.84;7398499;19;1182;-48
2023/05/09 03:44:21;;;;;;;;;;;;;;;21.39;64.64;101616.22;7395970;19;1321;-48
2023/05/09 03:46:52;;;;;;;;;;;;;;;21.45;64.58;101615.75;7398334;19;1507;-48
2023/05/09 03:49:21;;;;;;;;;;;;;;;21.41;64.48;101624.19;7395875;19;1860;-47
2023/05/09 03:51:49;;;;;;;;;;;;;;;21.39;64.75;101631.53;7397565;19;1505;-47
2023/05/09 03:54:17;;;;;;;;;;;;;;;21.34;64.80;101618.44;7397427;19;1628;-48
2023/05/09 03:56:46;;;;;;;;;;;;;;;21.38;64.67;101636.03;7397134;19;1245;-48
2023/05/09 03:59:14;;;;;;;;;;;;;;;21.35;64.72;101639.00;7396511;19;1541;-48
2023/05/09 04:01:44;;;;;;;;;;;;;;;21.06;65.32;101642.28;7398772;19;1273;-48
2023/05/09 04:04:15;;;;;;;;;;;;;;;20.90;65.89;101649.94;7397043;19;1600;-48
2023/05/09 04:06:43;;;;;;;;;;;;;;;20.86;66.13;101656.53;7397501;19;1611;-48
2023/05/09 04:09:11;;;;;;;;;;;;;;;20.77;66.32;101655.47;7393586;19;1849;-47
2023/05/09 04:11:40;;;;;;;;;;;;;;;20.57;66.77;101667.81;7396507;19;1217;-48
2023/05/09 04:14:08;;;;;;;;;;;;;;;20.49;66.88;101646.06;7396483;19;1224;-48
2023/05/09 04:16:36;;;;;;;;;;;;;;;20.39;67.13;101647.78;7395040;19;1534;-48
2023/05/09 04:19:06;;;;;;;;;;;;;;;20.31;67.35;101656.44;7395852;19;1170;-48
2023/05/09 04:21:37;;;;;;;;;;;;;;;20.29;67.19;101662.91;7394488;19;1299;-47
2023/05/09 04:24:05;;;;;;;;;;;;;;;20.34;66.74;101661.59;6866509;19;10000272;-48
2023/05/09 04:26:37;;;;;;;;;;;;;;;20.20;67.31;101654.63;7386296;19;1727;-48
2023/05/09 04:29:05;;;;;;;;;;;;;;;20.00;68.00;101660.72;7388301;19;1870;-48
2023/05/09 04:31:34;;;;;;;;;;;;;;;19.92;68.27;101658.63;7388025;19;1546;-48
2023/05/09 04:34:02;;;;;;;;;;;;;;;19.85;68.36;101668.97;7387607;19;1586;-48
2023/05/09 04:36:30;;;;;;;;;;;;;;;19.83;68.61;101670.94;7389338;19;1510;-48
2023/05/09 04:39:01;;;;;;;;;;;;;;;19.75;68.59;101667.97;7385795;19;1529;-48
2023/05/09 04:41:29;;;;;;;;;;;;;;;19.78;68.51;101659.72;7388433;19;1612;-47
2023/05/09 04:43:58;;;;;;;;;;;;;;;19.67;68.82;101675.75;7387744;19;1368;-47
2023/05/09 04:46:26;;;;;;;;;;;;;;;19.66;69.06;101668.69;7387712;19;1422;-48
2023/05/09 04:48:55;;;;;;;;;;;;;;;19.66;68.62;101674.03;7387030;19;1854;-48
2023/05/09 04:51:23;;;;;;;;;;;;;;;19.70;68.88;101678.19;7389025;19;1198;-48
2023/05/09 04:53:51;;;;;;;;;;;;;;;19.56;68.84;101643.53;7388065;19;1446;-48
2023/05/09 04:56:22;;;;;;;;;;;;;;;19.58;69.02;101674.63;7390793;19;1581;-47
2023/05/09 04:58:51;;;;;;;;;;;;;;;19.61;68.87;101670.84;7395174;19;1546;-48
2023/05/09 05:01:20;;;;;;;;;;;;;;;19.55;68.79;101665.97;7397142;19;1486;-47
2023/05/09 05:03:48;;;;;;;;;;;;;;;19.52;68.93;101661.69;7395979;19;1553;-48
2023/05/09 05:06:16;;;;;;;;;;;;;;;19.52;69.05;101671.53;7394856;19;1960;-47
2023/05/09 05:08:45;;;;;;;;;;;;;;;19.51;69.01;101659.13;7391949;19;1866;-48
2023/05/09 05:11:13;;;;;;;;;;;;;;;19.55;68.69;101668.63;7394744;19;1817;-47
2023/05/09 05:13:44;;;;;;;;;;;;;;;19.57;68.82;101662.16;7393756;19;1544;-48
2023/05/09 05:16:12;;;;;;;;;;;;;;;19.76;68.08;101661.66;7394060;19;1466;-48
2023/05/09 05:18:41;;;;;;;;;;;;;;;19.80;67.92;101663.13;7394762;19;1551;-48
2023/05/09 05:21:09;;;;;;;;;;;;;;;19.78;68.09;101669.59;7396864;19;1593;-48
2023/05/09 05:23:37;;;;;;;;;;;;;;;19.72;68.15;101675.44;7393332;19;2537;-48
2023/05/09 05:26:05;;;;;;;;;;;;;;;19.78;68.04;101675.81;7395096;19;1514;-47
2023/05/09 05:28:34;;;;;;;;;;;;;;;19.72;68.15;101672.75;7392895;19;1860;-48
2023/05/09 05:31:05;;;;;;;;;;;;;;;19.69;68.18;101676.47;7394613;19;2027;-48
2023/05/09 05:33:33;;;;;;;;;;;;;;;19.73;68.03;101672.63;7395345;19;1494;-47
2023/05/09 05:36:02;;;;;;;;;;;;;;;19.66;68.41;101677.56;7393636;19;1517;-48
2023/05/09 05:38:30;;;;;;;;;;;;;;;19.64;68.35;101673.31;7394477;19;1468;-48
2023/05/09 05:40:58;;;;;;;;;;;;;;;19.61;68.43;101666.34;7394942;19;1486;-47
2023/05/09 05:43:27;;;;;;;;;;;;;;;19.58;68.45;101673.78;7393558;19;1349;-47
2023/05/09 05:45:55;;;;;;;;;;;;;;;19.53;68.58;101671.44;7395315;19;1522;-48
2023/05/09 05:48:26;;;;;;;;;;;;;;;19.53;68.53;101679.47;7393905;19;1836;-47
2023/05/09 05:50:55;;;;;;;;;;;;;;;19.54;68.42;101683.03;7394270;19;1451;-48
2023/05/09 05:53:23;;;;;;;;;;;;;;;19.57;68.46;101688.16;7397074;19;1466;-48
2023/05/09 05:55:51;;;;;;;;;;;;;;;19.61;68.40;101689.63;7398460;19;1606;-47
2023/05/09 05:58:20;;;;;;;;;;;;;;;19.72;68.30;101688.84;7399277;19;1289;-48
2023/05/09 06:00:48;;;;;;;;;;;;;;;19.75;68.15;101691.28;7399469;19;1362;-47
2023/05/09 06:03:16;;;;;;;;;;;;;;;19.67;68.81;101690.00;7397682;19;1230;-47
2023/05/09 06:05:48;;;;;;;;;;;;;;;19.57;69.01;101689.00;7390658;19;1483;-47
2023/05/09 06:08:16;;;;;;;;;;;;;;;19.56;69.32;101681.09;7395189;19;1863;-47
2023/05/09 06:10:44;;;;;;;;;;;;;;;19.44;69.00;101689.09;7397600;19;1107;-46
2023/05/09 06:13:13;;;;;;;;;;;;;;;19.33;69.83;101697.06;7400028;19;1447;-47
2023/05/09 06:15:41;;;;;;;;;;;;;;;19.59;68.92;101681.69;7400285;19;1318;-47
2023/05/09 06:18:10;;;;;;;;;;;;;;;19.70;67.73;101691.63;7398829;19;1474;-47
2023/05/09 06:20:38;;;;;;;;;;;;;;;19.57;67.93;101680.09;7400405;19;1341;-46
2023/05/09 06:23:09;;;;;;;;;;;;;;;19.55;68.42;101679.38;7398097;19;1310;-48
2023/05/09 06:25:37;;;;;;;;;;;;;;;19.67;67.85;101690.00;7402334;19;948;-46
2023/05/09 06:28:06;;;;;;;;;;;;;;;20.20;66.75;101689.53;7397532;19;1947;-49
2023/05/09 06:30:34;;;;;;;;;;;;;;;20.25;66.62;101690.03;7398548;19;1529;-49
2023/05/09 06:33:02;;;;;;;;;;;;;;;20.17;66.85;101688.91;7399913;19;1474;-49
2023/05/09 06:35:31;;;;;;;;;;;;;;;20.22;66.45;101689.44;7400541;19;1301;-46
2023/05/09 06:37:59;;;;;;;;;;;;;;;20.16;67.27;101696.13;7399942;19;1946;-49
2023/05/09 06:40:30;;;;;;;;;;;;;;;20.37;66.70;101693.59;7399979;19;1953;-49
2023/05/09 06:42:58;;;;;;;;;;;;;;;20.42;65.74;101695.91;7398220;19;1218;-49
2023/05/09 06:45:26;;;;;;;;;;;;;;;20.39;65.71;101699.69;7396601;19;1250;-49
2023/05/09 06:47:54;;;;;;;;;;;;;;;20.20;66.39;101686.00;7399273;19;1427;-49
2023/05/09 06:50:23;;;;;;;;;;;;;;;20.04;67.43;101692.56;7395901;19;1858;-49
2023/05/09 06:52:51;;;;;;;;;;;;;;;20.26;66.56;101685.53;7400061;19;1918;-47
2023/05/09 06:55:19;;;;;;;;;;;;;;;20.44;66.27;101699.31;7399790;19;1840;-48
2023/05/09 06:57:50;;;;;;;;;;;;;;;20.31;66.45;101688.69;7399240;19;1456;-48
2023/05/09 07:00:19;;;;;;;;;;;;;;;20.39;66.41;101693.44;7396966;19;2145;-48
2023/05/09 07:02:47;;;;;;;;;;;;;;;20.10;66.88;101685.03;7399234;19;2064;-48
2023/05/09 07:05:15;;;;;;;;;;;;;;;20.05;67.08;101683.56;7399858;19;1545;-47
2023/05/09 07:07:44;;;;;;;;;;;;;;;20.24;66.83;101693.69;7399958;19;1364;-47
2023/05/09 07:10:13;;;;;;;;;;;;;;;20.44;66.30;101693.94;7396680;19;1848;-47
2023/05/09 07:12:41;;;;;;;;;;;;;;;20.25;67.04;101686.47;7397974;19;1537;-48
2023/05/09 07:15:12;;;;;;;;;;;;;;;20.02;67.41;101688.31;7398415;19;1458;-48
2023/05/09 07:17:41;;;;;;;;;;;;;;;19.88;68.14;101685.84;7398963;19;1216;-47
2023/05/09 07:20:10;;;;;;;;;;;;;;;19.99;67.80;101692.06;7397920;19;1836;-47
2023/05/09 07:22:38;;;;;;;;;;;;;;;20.32;66.82;101678.81;7398985;19;1783;-47
2023/05/09 07:25:08;;;;;;;;;;;;;;;20.38;66.50;101683.69;7398054;19;1633;-48
2023/05/09 07:27:36;;;;;;;;;;;;;;;20.36;66.69;101680.28;7397830;19;1680;-47
2023/05/09 07:30:05;;;;;;;;;;;;;;;20.34;66.62;101687.59;7395981;19;1850;-47
2023/05/09 07:32:36;;;;;;;;;;;;;;;20.11;67.15;101687.56;7398598;19;952;-47
2023/05/09 07:35:04;;;;;;;;;;;;;;;20.24;66.88;101688.31;7397483;19;1946;-47
2023/05/09 07:37:33;;;;;;;;;;;;;;;20.49;66.36;101691.72;7398707;19;1807;-47
2023/05/09 07:40:02;;;;;;;;;;;;;;;20.44;66.45;101692.09;7398158;19;1550;-47
2023/05/09 07:42:31;;;;;;;;;;;;;;;20.38;66.73;101694.44;7397031;19;1724;-48
2023/05/09 07:44:59;;;;;;;;;;;;;;;20.37;66.70;101693.59;7398856;19;992;-47
2023/05/09 07:47:28;;;;;;;;;;;;;;;20.16;67.11;101698.81;7396605;19;1942;-47
2023/05/09 07:49:59;;;;;;;;;;;;;;;20.30;66.74;101686.97;7395857;19;1862;-47
2023/05/09 07:52:27;;;;;;;;;;;;;;;20.51;66.31;101691.63;7397177;19;1499;-47
2023/05/09 07:54:56;;;;;;;;;;;;;;;20.40;66.68;101677.22;7397905;19;1828;-47
2023/05/09 07:57:24;;;;;;;;;;;;;;;20.33;66.95;101680.50;7397577;19;1717;-47
2023/05/09 07:59:52;;;;;;;;;;;;;;;20.01;67.80;101683.91;7397191;19;1336;-47
2023/05/09 08:02:21;;;;;;;;;;;;;;;20.20;67.28;101678.78;7395047;19;1271;-46
2023/05/09 08:04:49;;;;;;;;;;;;;;;20.32;66.50;101674.28;7396409;19;1322;-47
2023/05/09 08:07:20;;;;;;;;;;;;;;;20.49;66.26;101683.66;7398040;19;1867;-47
2023/05/09 08:09:48;;;;;;;;;;;;;;;20.38;66.23;101681.00;7395995;19;1859;-47
2023/05/09 08:12:17;;;;;;;;;;;;;;;20.38;66.35;101683.69;7398710;19;1244;-47
2023/05/09 08:14:45;;;;;;;;;;;;;;;20.36;66.34;101691.03;7395652;19;1542;-47
2023/05/09 08:17:14;;;;;;;;;;;;;;;19.96;67.89;101680.72;7396932;19;1549;-47
2023/05/09 08:19:42;;;;;;;;;;;;;;;19.96;67.93;101678.06;7395018;19;1217;-47
2023/05/09 08:22:10;;;;;;;;;;;;;;;19.99;68.07;101680.47;7387721;19;1397;-48
2023/05/09 08:24:41;;;;;;;;;;;;;;;20.20;67.42;101697.59;7392367;19;1411;-48
2023/05/09 08:27:09;;;;;;;;;;;;;;;20.36;66.83;101680.28;7393273;19;1483;-48
2023/05/09 08:29:37;;;;;;;;;;;;;;;20.43;66.41;101676.09;7394043;19;1858;-48
2023/05/09 08:32:06;;;;;;;;;;;;;;;20.41;66.58;101686.13;7394733;19;1102;-48
2023/05/09 08:34:35;;;;;;;;;;;;;;;20.36;66.53;101680.28;7393824;19;1899;-48
2023/05/09 08:37:03;;;;;;;;;;;;;;;20.30;66.66;101670.88;7395333;19;1593;-48
2023/05/09 08:39:33;;;;;;;;;;;;;;;19.99;68.04;101683.16;7395677;19;1507;-48
2023/05/09 08:42:04;;;;;;;;;;;;;;;20.16;67.63;101674.66;7396951;19;1069;-48
2023/05/09 08:44:32;;;;;;;;;;;;;;;20.11;67.97;101674.13;7395631;19;1547;-48
2023/05/09 08:47:01;;;;;;;;;;;;;;;20.14;67.66;101679.28;7395345;19;1411;-48
2023/05/09 08:49:30;;;;;;;;;;;;;;;20.21;67.57;101683.22;7394669;19;1851;-47
2023/05/09 08:51:59;;;;;;;;;;;;;;;20.27;67.27;101681.84;7396236;19;1766;-48
2023/05/09 08:54:27;;;;;;;;;;;;;;;20.33;66.93;101662.53;7393430;19;1424;-48
2023/05/09 08:56:56;;;;;;;;;;;;;;;20.24;67.18;101672.19;7396043;19;1333;-48
2023/05/09 08:59:27;;;;;;;;;;;;;;;20.14;67.24;101675.75;7393974;19;1400;-48
2023/05/09 09:01:56;;;;;;;;;;;;;;;19.95;68.70;101666.44;7395417;19;1596;-47
2023/05/09 09:04:24;;;;;;;;;;;;;;;20.12;68.18;101672.34;7394383;19;1514;-47
2023/05/09 09:06:53;;;;;;;;;;;;;;;20.21;67.88;101660.84;7393267;19;1653;-47
2023/05/09 09:09:22;;;;;;;;;;;;;;;20.13;67.80;101664.13;7391159;19;1848;-47
2023/05/09 09:11:52;;;;;;;;;;;;;;;20.23;67.70;101667.81;7394707;19;1156;-47
2023/05/09 09:14:24;;;;;;;;;;;;;;;20.31;67.24;101663.66;7392414;19;1487;-47
2023/05/09 09:16:57;;;;;;;;;;;;;;;20.36;66.71;101656.94;7395615;19;1539;-47
2023/05/09 09:19:29;;;;;;;;;;;;;;;20.39;66.83;101667.47;7394065;19;1375;-47
2023/05/09 09:22:00;;;;;;;;;;;;;;;19.99;67.80;101650.94;7394551;19;1462;-48
2023/05/09 09:24:29;;;;;;;;;;;;;;;20.07;67.78;101667.31;7393926;19;1159;-47
2023/05/09 09:26:57;;;;;;;;;;;;;;;20.18;67.54;101682.59;7393537;19;1368;-47
2023/05/09 09:29:27;;;;;;;;;;;;;;;20.20;67.64;101681.47;7393184;19;1843;-47
2023/05/09 09:31:58;;;;;;;;;;;;;;;20.08;67.87;101665.50;7394493;19;1910;-48
2023/05/09 09:34:26;;;;;;;;;;;;;;;20.13;67.63;101669.50;7395409;19;1741;-47
2023/05/09 09:36:55;;;;;;;;;;;;;;;20.26;67.17;101681.00;7393265;19;1806;-47
2023/05/09 09:39:23;;;;;;;;;;;;;;;20.29;66.76;101663.78;7393360;19;1795;-47
2023/05/09 09:41:51;;;;;;;;;;;;;;;20.24;67.08;101666.84;7396199;19;1027;-47
2023/05/09 09:44:20;;;;;;;;;;;;;;;19.98;67.78;101660.00;7398553;19;1825;-47
2023/05/09 09:46:49;;;;;;;;;;;;;;;20.14;67.65;101654.28;7402344;19;1728;-47
2023/05/09 09:49:21;;;;;;;;;;;;;;;20.17;67.51;101657.53;7401750;19;1857;-48
2023/05/09 09:51:51;;;;;;;;;;;;;;;20.15;67.52;101653.28;7400381;19;1447;-48
2023/05/09 09:54:20;;;;;;;;;;;;;;;20.23;67.02;101659.78;7400140;19;1490;-47
2023/05/09 09:56:48;;;;;;;;;;;;;;;20.22;67.24;101649.13;7400140;19;1741;-47
2023/05/09 09:59:17;;;;;;;;;;;;;;;20.18;67.18;101655.72;7398794;19;1645;-48
2023/05/09 10:01:56;;;;;;;;;;;;;;;20.18;67.02;101653.91;7402728;19;1193;-47
2023/05/09 10:04:29;;;;;;;;;;;;;;;20.03;67.48;101636.31;7400905;19;1725;-47
2023/05/09 10:06:58;;;;;;;;;;;;;;;19.96;68.53;101624.34;7400424;19;1689;-47
2023/05/09 10:09:27;;;;;;;;;;;;;;;20.41;67.61;101635.06;7396378;19;1861;-47
2023/05/09 10:11:57;;;;;;;;;;;;;;;20.38;67.56;101640.72;7401194;19;1965;-47
2023/05/09 10:14:26;;;;;;;;;;;;;;;20.25;68.09;101644.38;7400888;19;1770;-47
2023/05/09 10:16:56;;;;;;;;;;;;;;;20.12;68.20;101635.59;7400067;19;1906;-48
2023/05/09 10:19:28;;;;;;;;;;;;;;;20.00;68.82;101628.50;7401188;19;1448;-47
2023/05/09 10:21:58;;;;;;;;;;;;;;;19.95;69.04;101628.84;7398956;19;1648;-47
2023/05/09 10:24:29;;;;;;;;;;;;;;;20.00;68.89;101633.88;7399677;19;1534;-47
2023/05/09 10:27:02;;;;;;;;;;;;;;;20.04;68.90;101629.97;7399865;19;953;-47
2023/05/09 10:29:33;;;;;;;;;;;;;;;20.22;68.08;101624.97;7398104;19;1856;-47
2023/05/09 10:32:05;;;;;;;;;;;;;;;20.33;67.64;101629.47;7401773;19;945;-47
2023/05/09 10:34:39;;;;;;;;;;;;;;;20.33;67.48;101626.78;7399010;19;1886;-47
2023/05/09 10:37:07;;;;;;;;;;;;;;;20.19;68.06;101628.75;7400286;19;1570;-47
2023/05/09 10:39:37;;;;;;;;;;;;;;;20.00;68.76;101632.03;7399199;19;1176;-47
2023/05/09 10:42:06;;;;;;;;;;;;;;;20.25;68.17;101630.97;7399789;19;1130;-48
2023/05/09 10:44:34;;;;;;;;;;;;;;;20.28;68.01;101632.53;7400459;19;1898;-47
2023/05/09 10:47:03;;;;;;;;;;;;;;;20.13;68.51;101639.97;7397234;19;1812;-47
2023/05/09 10:49:31;;;;;;;;;;;;;;;20.05;68.60;101645.97;7398533;19;1857;-47
2023/05/09 10:52:02;;;;;;;;;;;;;;;19.99;68.59;101634.84;7399562;19;1428;-47
2023/05/09 10:54:32;;;;;;;;;;;;;;;20.01;68.72;101640.94;7397961;19;1432;-47
2023/05/09 10:57:00;;;;;;;;;;;;;;;20.03;68.70;101625.56;7399110;19;1206;-47
2023/05/09 10:59:36;;;;;;;;;;;;;;;19.98;68.59;101634.00;7399732;19;1599;-47
2023/05/09 11:02:05;;;;;;;;;;;;;;;19.92;68.81;101636.31;7400743;19;1250;-47
2023/05/09 11:04:34;;;;;;;;;;;;;;;19.89;69.17;101639.22;7396897;19;1510;-48
2023/05/09 11:07:05;;;;;;;;;;;;;;;20.04;69.13;101643.41;7398658;19;1349;-47
2023/05/09 11:09:37;;;;;;;;;;;;;;;20.26;68.33;101639.84;7397587;19;1842;-47
2023/05/09 11:12:12;;;;;;;;;;;;;;;20.22;68.65;101631.19;7397400;19;1276;-48
2023/05/09 11:14:43;;;;;;;;;;;;;;;20.12;68.69;101621.31;7399809;19;1549;-47
2023/05/09 11:17:12;;;;;;;;;;;;;;;20.04;69.27;101622.75;7398736;19;1910;-48
2023/05/09 11:19:59;;;;;;;;;;;;;;;19.98;69.48;101627.78;7399965;19;1736;-48
2023/05/09 11:22:31;;;;;;;;;;;;;;;19.94;69.60;101623.63;7399022;19;1357;-48
2023/05/09 11:25:06;;;;;;;;;;;;;;;20.05;68.91;101618.25;7398910;19;1613;-47
2023/05/09 11:27:39;;;;;;;;;;;;;;;19.96;69.24;101625.19;7397757;19;1804;-47
2023/05/09 11:30:08;;;;;;;;;;;;;;;20.06;68.24;101628.03;7397301;19;1845;-48
2023/05/09 11:32:43;;;;;;;;;;;;;;;20.08;68.16;101614.47;7395984;19;1826;-47
2023/05/09 11:35:13;;;;;;;;;;;;;;;19.96;69.36;101629.72;7397716;19;1480;-47
2023/05/09 11:37:46;;;;;;;;;;;;;;;20.32;68.89;101625.09;7396945;19;1910;-49
2023/05/09 11:40:16;;;;;;;;;;;;;;;20.44;68.48;101607.97;7398379;19;1436;-48
2023/05/09 11:42:45;;;;;;;;;;;;;;;20.32;68.75;101625.09;7398481;19;1490;-48
2023/05/09 11:45:13;;;;;;;;;;;;;;;20.11;68.88;101623.13;7395554;19;1705;-49
2023/05/09 11:47:42;;;;;;;;;;;;;;;20.13;68.24;101615.78;7399714;19;952;-48
2023/05/09 11:50:11;;;;;;;;;;;;;;;20.18;68.48;101616.28;7397891;19;1856;-48
2023/05/09 11:52:40;;;;;;;;;;;;;;;20.29;68.36;101601.16;7399326;19;1792;-47
2023/05/09 11:55:12;;;;;;;;;;;;;;;20.37;68.14;101614.81;7398927;19;1918;-48
2023/05/09 11:57:41;;;;;;;;;;;;;;;20.36;68.11;101602.38;7398705;19;1241;-48
2023/05/09 12:00:10;;;;;;;;;;;;;;;20.01;69.34;101612.25;7396542;19;1731;-48
2023/05/09 12:02:39;;;;;;;;;;;;;;;20.26;68.71;101615.69;7391463;19;1014;-49
2023/05/09 12:05:11;;;;;;;;;;;;;;;20.25;68.74;101614.84;7393969;19;1011;-48
2023/05/09 12:07:41;;;;;;;;;;;;;;;20.24;68.53;101602.38;7393394;19;1962;-48
2023/05/09 12:10:13;;;;;;;;;;;;;;;20.15;68.46;101600.41;7392233;19;1876;-48
2023/05/09 12:12:44;;;;;;;;;;;;;;;20.14;68.72;101603.25;7390394;19;1819;-48
2023/05/09 12:15:13;;;;;;;;;;;;;;;20.20;68.54;101595.53;7394873;19;1798;-47
2023/05/09 12:17:42;;;;;;;;;;;;;;;20.24;68.15;101583.56;7399041;19;953;-47
2023/05/09 12:20:10;;;;;;;;;;;;;;;20.30;68.15;101579.53;7398302;19;1957;-48
2023/05/09 12:22:39;;;;;;;;;;;;;;;20.11;68.77;101595.44;7398222;19;1775;-48
2023/05/09 12:25:09;;;;;;;;;;;;;;;19.94;69.30;101578.84;7397207;19;1839;-48
2023/05/09 12:27:40;;;;;;;;;;;;;;;20.26;68.39;101576.25;7397331;19;1261;-48
2023/05/09 12:30:10;;;;;;;;;;;;;;;20.30;68.17;101586.75;7396385;19;1859;-48
2023/05/09 12:32:40;;;;;;;;;;;;;;;20.23;68.36;101573.81;7398175;19;984;-48
2023/05/09 12:35:09;;;;;;;;;;;;;;;20.17;68.35;101570.75;7397291;19;1538;-48
2023/05/09 12:37:38;;;;;;;;;;;;;;;20.21;68.17;101565.03;7396242;19;1539;-47
2023/05/09 12:40:07;;;;;;;;;;;;;;;20.18;68.51;101548.31;7397443;19;1476;-48
2023/05/09 12:42:36;;;;;;;;;;;;;;;20.31;68.12;101551.69;7396087;19;1388;-48
2023/05/09 12:45:09;;;;;;;;;;;;;;;20.36;67.61;101551.34;7398350;19;1030;-48
2023/05/09 12:47:40;;;;;;;;;;;;;;;20.07;68.57;101551.84;7398185;19;1044;-48
2023/05/09 12:50:09;;;;;;;;;;;;;;;20.08;68.98;101566.16;7396934;19;1873;-48
2023/05/09 12:52:39;;;;;;;;;;;;;;;20.37;68.10;101544.97;7397223;19;1317;-48
2023/05/09 12:55:08;;;;;;;;;;;;;;;20.29;68.33;101550.13;7396622;19;1855;-48
2023/05/09 12:57:36;;;;;;;;;;;;;;;20.14;68.61;101553.06;7396768;19;1733;-48
2023/05/09 13:00:05;;;;;;;;;;;;;;;20.22;68.06;101558.66;7396439;19;1823;-48